createdAt,value
2022-10-13T00:01:43.916Z,10.50
2022-10-13T00:05:05.737Z,10.50
2022-10-13T00:08:28.680Z,10.50
2022-10-13T00:11:50.239Z,10.40
2022-10-13T00:15:12.135Z,10.40
2022-10-13T00:18:33.708Z,10.30
2022-10-13T00:21:55.248Z,10.20
2022-10-13T00:25:18.111Z,10.10
2022-10-13T00:28:40.148Z,10.00
2022-10-13T00:32:01.708Z,9.90
2022-10-13T00:35:23.244Z,9.90
2022-10-13T00:38:45.083Z,9.80
2022-10-13T00:42:14.182Z,9.80
2022-10-13T00:45:35.728Z,9.90
2022-10-13T00:48:58.605Z,10.10
2022-10-13T00:52:20.789Z,10.40
2022-10-13T00:55:43.498Z,10.60
2022-10-13T00:59:09.628Z,10.70
2022-10-13T01:02:31.946Z,10.90
2022-10-13T01:05:54.230Z,11.00
2022-10-13T01:09:15.871Z,11.00
2022-10-13T01:12:41.852Z,11.10
2022-10-13T01:16:08.570Z,11.20
2022-10-13T01:19:51.095Z,11.20
2022-10-13T01:23:23.570Z,11.30
2022-10-13T01:27:05.086Z,11.30
2022-10-13T01:30:28.404Z,11.30
2022-10-13T01:33:52.506Z,11.30
2022-10-13T01:37:19.483Z,11.20
2022-10-13T01:40:42.764Z,11.20
2022-10-13T01:44:07.644Z,11.10
2022-10-13T01:47:31.722Z,11.00
2022-10-13T01:50:53.972Z,10.90
2022-10-13T01:54:15.540Z,10.90
2022-10-13T01:57:38.195Z,10.90
2022-10-13T02:01:06.578Z,11.00
2022-10-13T02:04:37.093Z,11.00
2022-10-13T02:08:01.728Z,11.00
2022-10-13T02:11:23.785Z,11.10
2022-10-13T02:14:45.969Z,11.10
2022-10-13T02:18:07.922Z,11.10
2022-10-13T02:21:31.007Z,11.10
2022-10-13T02:24:53.020Z,11.10
2022-10-13T02:28:14.987Z,11.10
2022-10-13T02:31:37.008Z,11.10
2022-10-13T02:34:58.578Z,11.00
2022-10-13T02:38:21.598Z,11.00
2022-10-13T02:41:43.318Z,11.00
2022-10-13T02:45:05.543Z,11.10
2022-10-13T02:48:27.079Z,11.10
2022-10-13T02:51:48.640Z,11.10
2022-10-13T02:55:11.764Z,11.20
2022-10-13T02:58:33.310Z,11.30
2022-10-13T03:01:54.850Z,11.30
2022-10-13T03:05:16.402Z,11.30
2022-10-13T03:08:38.264Z,11.30
2022-10-13T03:12:01.174Z,11.30
2022-10-13T03:15:22.773Z,11.30
2022-10-13T03:18:44.305Z,11.30
2022-10-13T03:22:05.849Z,11.20
2022-10-13T03:25:27.423Z,11.20
2022-10-13T03:28:50.742Z,11.10
2022-10-13T03:32:12.360Z,11.10
2022-10-13T03:35:33.902Z,11.10
2022-10-13T03:38:55.451Z,11.00
2022-10-13T03:42:17.233Z,10.90
2022-10-13T03:45:40.435Z,10.90
2022-10-13T03:49:01.965Z,10.90
2022-10-13T03:52:23.517Z,10.90
2022-10-13T03:55:48.471Z,10.90
2022-10-13T03:59:11.303Z,10.80
2022-10-13T04:02:34.208Z,10.90
2022-10-13T04:05:55.742Z,10.90
2022-10-13T04:09:17.294Z,11.00
2022-10-13T04:12:38.852Z,11.10
2022-10-13T04:16:02.013Z,11.20
2022-10-13T04:19:24.993Z,11.20
2022-10-13T04:22:46.727Z,11.20
2022-10-13T04:26:14.384Z,11.30
2022-10-13T04:29:35.930Z,11.20
2022-10-13T04:32:57.739Z,11.20
2022-10-13T04:36:21.188Z,11.20
2022-10-13T04:39:42.734Z,11.10
2022-10-13T04:43:04.264Z,11.20
2022-10-13T04:46:26.707Z,11.20
2022-10-13T04:49:48.691Z,11.20
2022-10-13T04:53:15.433Z,11.10
2022-10-13T04:56:40.628Z,11.00
2022-10-13T05:00:02.355Z,10.80
2022-10-13T05:03:24.128Z,10.80
2022-10-13T05:07:12.550Z,10.80
2022-10-13T05:10:33.870Z,10.70
2022-10-13T05:13:56.735Z,10.70
2022-10-13T05:17:18.293Z,10.60
2022-10-13T05:20:39.833Z,10.50
2022-10-13T05:24:01.404Z,10.40
2022-10-13T05:27:24.548Z,10.40
2022-10-13T05:30:46.086Z,10.50
2022-10-13T05:34:07.627Z,10.50
2022-10-13T05:37:29.170Z,10.60
2022-10-13T05:40:50.725Z,10.70
2022-10-13T05:44:13.820Z,10.80
2022-10-13T05:47:35.477Z,10.80
2022-10-13T05:50:58.806Z,10.90
2022-10-13T05:54:21.707Z,11.00
2022-10-13T05:57:44.461Z,11.00
2022-10-13T06:01:07.960Z,11.20
2022-10-13T06:04:31.550Z,11.20
2022-10-13T06:07:54.173Z,11.30
2022-10-13T06:11:15.713Z,11.50
2022-10-13T06:14:37.261Z,11.60
2022-10-13T06:18:00.169Z,11.70
2022-10-13T06:21:21.712Z,11.70
2022-10-13T06:24:43.246Z,11.80
2022-10-13T06:28:04.894Z,11.80
2022-10-13T06:31:26.423Z,11.90
2022-10-13T06:34:49.351Z,12.00
2022-10-13T06:38:10.932Z,12.10
2022-10-13T06:41:32.473Z,12.20
2022-10-13T06:44:54.024Z,12.20
2022-10-13T06:48:15.562Z,12.30
2022-10-13T06:51:38.460Z,12.30
2022-10-13T06:54:59.994Z,12.30
2022-10-13T06:58:21.522Z,12.40
2022-10-13T07:01:43.067Z,12.50
2022-10-13T07:05:04.924Z,12.60
2022-10-13T07:08:27.814Z,12.60
2022-10-13T07:11:49.388Z,12.70
2022-10-13T07:15:11.389Z,12.80
2022-10-13T07:18:33.088Z,12.80
2022-10-13T07:21:54.644Z,12.90
2022-10-13T07:25:17.684Z,12.90
2022-10-13T07:28:39.276Z,13.00
2022-10-13T07:32:00.909Z,13.00
2022-10-13T07:35:25.864Z,12.90
2022-10-13T07:38:51.212Z,13.10
2022-10-13T07:42:14.177Z,13.20
2022-10-13T07:45:35.735Z,13.20
2022-10-13T07:48:57.299Z,13.50
2022-10-13T07:52:19.116Z,14.10
2022-10-13T07:55:40.844Z,14.90
2022-10-13T07:59:03.735Z,15.30
2022-10-13T08:02:25.284Z,15.20
2022-10-13T08:05:46.833Z,15.20
2022-10-13T08:09:08.642Z,15.30
2022-10-13T08:12:30.176Z,15.40
2022-10-13T08:15:53.128Z,15.40
2022-10-13T08:19:15.364Z,15.60
2022-10-13T08:22:36.891Z,15.70
2022-10-13T08:25:58.515Z,15.80
2022-10-13T08:29:23.054Z,16.10
2022-10-13T08:32:46.602Z,16.20
2022-10-13T08:36:08.287Z,16.20
2022-10-13T08:39:30.234Z,16.00
2022-10-13T08:42:53.619Z,15.80
2022-10-13T08:46:19.411Z,16.00
2022-10-13T08:49:42.701Z,16.40
2022-10-13T08:53:05.655Z,16.90
2022-10-13T08:56:28.559Z,17.10
2022-10-13T08:59:50.712Z,17.30
2022-10-13T09:03:22.474Z,17.50
2022-10-13T09:06:46.777Z,18.00
2022-10-13T09:10:09.547Z,17.90
2022-10-13T09:13:31.125Z,17.60
2022-10-13T09:16:53.275Z,17.40
2022-10-13T09:20:19.220Z,17.00
2022-10-13T09:23:42.213Z,17.00
2022-10-13T09:27:05.275Z,17.10
2022-10-13T09:30:28.924Z,17.20
2022-10-13T09:33:57.252Z,17.10
2022-10-13T09:37:20.052Z,17.00
2022-10-13T09:44:13.125Z,17.10
2022-10-13T09:47:34.750Z,17.00
2022-10-13T09:50:56.936Z,16.90
2022-10-13T09:54:25.689Z,17.00
2022-10-13T09:57:49.592Z,16.80
2022-10-13T10:01:16.745Z,16.80
2022-10-13T10:04:38.801Z,16.90
2022-10-13T10:08:02.664Z,16.90
2022-10-13T10:11:27.367Z,16.90
2022-10-13T10:14:50.252Z,17.00
2022-10-13T10:18:14.306Z,17.20
2022-10-13T10:21:37.720Z,17.20
2022-10-13T10:25:02.976Z,17.20
2022-10-13T10:28:35.514Z,17.00
2022-10-13T10:32:21.291Z,17.10
2022-10-13T10:35:48.543Z,17.10
2022-10-13T10:39:15.969Z,17.00
2022-10-13T10:42:59.162Z,16.90
2022-10-13T10:46:22.711Z,16.90
2022-10-13T10:49:44.282Z,16.90
2022-10-13T10:53:09.435Z,16.90
2022-10-13T10:56:33.553Z,16.80
2022-10-13T10:59:58.285Z,16.90
2022-10-13T11:03:26.335Z,17.00
2022-10-13T11:06:47.904Z,17.10
2022-10-13T11:10:18.777Z,17.20
2022-10-13T11:13:49.931Z,17.40
2022-10-13T11:17:18.658Z,17.70
2022-10-13T11:20:56.880Z,17.60
2022-10-13T11:24:33.314Z,17.60
2022-10-13T11:27:56.268Z,17.70
2022-10-13T11:31:25.180Z,17.80
2022-10-13T11:34:57.028Z,17.80
2022-10-13T11:38:25.873Z,17.90
2022-10-13T11:41:51.547Z,18.10
2022-10-13T11:45:19.932Z,18.10
2022-10-13T11:48:59.903Z,17.90
2022-10-13T11:52:26.825Z,17.80
2022-10-13T11:55:49.793Z,17.90
2022-10-13T11:59:19.389Z,17.90
2022-10-13T12:02:49.339Z,17.90
2022-10-13T12:06:22.848Z,17.90
2022-10-13T12:09:49.321Z,17.90
2022-10-13T12:13:19.424Z,17.90
2022-10-13T12:16:51.608Z,17.90
2022-10-13T12:20:22.319Z,17.70
2022-10-13T12:23:43.942Z,17.80
2022-10-13T12:27:09.877Z,17.90
2022-10-13T12:30:32.503Z,18.10
2022-10-13T12:33:54.662Z,18.10
2022-10-13T12:37:23.764Z,18.30
2022-10-13T12:40:45.898Z,18.30
2022-10-13T12:44:07.895Z,18.30
2022-10-13T12:47:36.475Z,18.10
2022-10-13T12:51:07.492Z,18.00
2022-10-13T12:54:31.275Z,17.90
2022-10-13T12:57:52.868Z,18.20
2022-10-13T13:01:23.316Z,18.40
2022-10-13T13:04:44.938Z,18.40
2022-10-13T13:08:21.328Z,18.40
2022-10-13T13:11:44.232Z,18.40
2022-10-13T13:15:30.882Z,18.40
2022-10-13T13:18:52.443Z,18.50
2022-10-13T13:22:14.090Z,18.50
2022-10-13T13:25:35.613Z,18.60
2022-10-13T13:28:58.954Z,18.70
2022-10-13T13:32:21.242Z,18.70
2022-10-13T13:35:42.775Z,18.60
2022-10-13T13:39:05.900Z,18.50
2022-10-13T13:42:27.578Z,18.50
2022-10-13T13:45:50.472Z,18.40
2022-10-13T13:49:12.026Z,18.30
2022-10-13T13:52:33.558Z,18.20
2022-10-13T13:55:55.112Z,18.10
2022-10-13T13:59:16.679Z,18.10
2022-10-13T14:02:39.783Z,18.10
2022-10-13T14:06:01.341Z,18.00
2022-10-13T14:09:22.882Z,18.00
2022-10-13T14:12:44.469Z,18.00
2022-10-13T14:16:06.472Z,18.00
2022-10-13T14:19:29.464Z,18.10
2022-10-13T14:22:51.084Z,18.20
2022-10-13T14:26:13.164Z,18.20
2022-10-13T14:29:34.783Z,18.10
2022-10-13T14:32:58.126Z,18.00
2022-10-13T14:36:21.063Z,17.80
2022-10-13T14:39:42.602Z,17.80
2022-10-13T14:43:04.165Z,17.60
2022-10-13T14:46:25.941Z,17.60
2022-10-13T14:49:47.533Z,17.60
2022-10-13T14:53:10.484Z,17.60
2022-10-13T14:56:32.409Z,17.50
2022-10-13T14:59:56.845Z,17.40
2022-10-13T15:03:22.423Z,17.30
2022-10-13T15:06:44.062Z,17.20
2022-10-13T15:10:07.955Z,17.20
2022-10-13T15:13:29.612Z,17.20
2022-10-13T15:16:51.372Z,17.10
2022-10-13T15:20:13.007Z,17.10
2022-10-13T15:23:34.671Z,17.10
2022-10-13T15:26:58.413Z,17.00
2022-10-13T15:30:19.979Z,17.00
2022-10-13T15:33:42.395Z,16.90
2022-10-13T15:37:03.964Z,16.90
2022-10-13T15:40:25.510Z,16.90
2022-10-13T15:43:48.971Z,16.90
2022-10-13T15:47:14.950Z,16.80
2022-10-13T15:50:39.057Z,16.70
2022-10-13T15:54:00.628Z,16.60
2022-10-13T15:57:22.236Z,16.50
2022-10-13T16:00:45.377Z,16.30
2022-10-13T16:04:07.050Z,16.20
2022-10-13T16:07:28.615Z,16.10
2022-10-13T16:10:50.170Z,16.00
2022-10-13T16:14:11.752Z,16.00
2022-10-13T16:17:34.980Z,15.80
2022-10-13T16:20:56.537Z,15.70
2022-10-13T16:24:18.135Z,15.60
2022-10-13T16:27:44.021Z,15.50
2022-10-13T16:31:06.983Z,15.40
2022-10-13T16:34:29.972Z,15.20
2022-10-13T16:37:51.595Z,15.10
2022-10-13T16:41:14.197Z,15.10
2022-10-13T16:44:35.738Z,15.00
2022-10-13T16:47:57.393Z,15.00
2022-10-13T16:51:21.385Z,14.90
2022-10-13T16:54:42.926Z,14.80
2022-10-13T16:58:04.485Z,14.70
2022-10-13T17:01:26.609Z,14.60
2022-10-13T17:04:48.154Z,14.50
2022-10-13T17:08:11.056Z,14.50
2022-10-13T17:11:34.028Z,14.40
2022-10-13T17:14:55.585Z,14.40
2022-10-13T17:18:17.156Z,14.40
2022-10-13T17:21:38.711Z,14.30
2022-10-13T17:25:01.676Z,14.30
2022-10-13T17:28:23.754Z,14.30
2022-10-13T17:31:45.383Z,14.20
2022-10-13T17:35:07.253Z,14.20
2022-10-13T17:38:29.090Z,14.20
2022-10-13T17:41:51.958Z,14.20
2022-10-13T17:45:13.552Z,14.20
2022-10-13T17:48:35.263Z,14.10
2022-10-13T17:51:56.809Z,14.10
2022-10-13T17:55:18.375Z,14.10
2022-10-13T17:58:42.147Z,14.20
2022-10-13T18:02:04.087Z,14.10
2022-10-13T18:05:25.815Z,14.10
2022-10-13T18:08:47.831Z,14.00
2022-10-13T18:12:09.437Z,14.00
2022-10-13T18:15:34.696Z,13.90
2022-10-13T18:18:56.331Z,13.90
2022-10-13T18:22:17.961Z,13.90
2022-10-13T18:25:39.705Z,13.90
2022-10-13T18:29:01.763Z,13.80
2022-10-13T18:32:24.833Z,13.80
2022-10-13T18:35:46.409Z,13.80
2022-10-13T18:39:08.524Z,13.80
2022-10-13T18:42:30.150Z,13.80
2022-10-13T18:45:51.695Z,13.80
2022-10-13T18:49:14.954Z,13.80
2022-10-13T18:52:36.535Z,13.80
2022-10-13T18:56:01.915Z,13.80
2022-10-13T18:59:23.656Z,13.80
2022-10-13T19:02:45.182Z,13.80
2022-10-13T19:06:09.146Z,13.80
2022-10-13T19:09:30.695Z,13.70
2022-10-13T19:12:52.213Z,13.70
2022-10-13T19:16:15.751Z,13.60
2022-10-13T19:19:37.423Z,13.60
2022-10-13T19:23:00.333Z,13.60
2022-10-13T19:26:23.266Z,13.60
2022-10-13T19:29:44.821Z,13.60
2022-10-13T19:33:06.611Z,13.60
2022-10-13T19:36:29.930Z,13.60
2022-10-13T19:39:52.820Z,13.60
2022-10-13T19:43:14.398Z,13.60
2022-10-13T19:46:36.355Z,13.60
2022-10-13T19:49:57.936Z,13.60
2022-10-13T19:53:19.532Z,13.60
2022-10-13T19:56:42.445Z,13.60
2022-10-13T20:00:04.620Z,13.60
2022-10-13T20:03:26.995Z,13.60
2022-10-13T20:06:50.993Z,13.50
2022-10-13T20:10:14.531Z,13.50
2022-10-13T20:13:39.116Z,13.50
2022-10-13T20:17:01.848Z,13.60
2022-10-13T20:20:23.587Z,13.50
2022-10-13T20:23:45.158Z,13.50
2022-10-13T20:27:06.709Z,13.50
2022-10-13T20:30:29.651Z,13.50
2022-10-13T20:33:53.388Z,13.50
2022-10-13T20:37:15.010Z,13.50
2022-10-13T20:40:36.871Z,13.40
2022-10-13T20:43:59.389Z,13.40
2022-10-13T20:47:22.728Z,13.40
2022-10-13T20:50:44.526Z,13.40
2022-10-13T20:54:06.094Z,13.40
2022-10-13T20:57:27.675Z,13.30
2022-10-13T21:00:49.264Z,13.30
2022-10-13T21:04:12.333Z,13.20
2022-10-13T21:07:33.894Z,13.10
2022-10-13T21:10:55.534Z,13.00
2022-10-13T21:14:17.102Z,12.90
2022-10-13T21:17:42.343Z,12.80
2022-10-13T21:21:06.408Z,12.80
2022-10-13T21:24:27.955Z,12.70
2022-10-13T21:27:49.674Z,12.80
2022-10-13T21:31:12.385Z,12.70
2022-10-13T21:34:33.969Z,12.80
2022-10-13T21:37:56.916Z,12.80
2022-10-13T21:41:18.842Z,12.90
2022-10-13T21:44:40.438Z,12.90
2022-10-13T21:48:01.981Z,12.90
2022-10-13T21:51:24.695Z,12.90
2022-10-13T21:54:48.783Z,12.80
2022-10-13T21:58:10.327Z,12.80
2022-10-13T22:01:32.034Z,12.70
2022-10-13T22:04:53.579Z,12.80
2022-10-13T22:08:15.104Z,12.80
2022-10-13T22:11:38.266Z,12.80
2022-10-13T22:14:59.815Z,12.80
2022-10-13T22:18:21.346Z,12.80
2022-10-13T22:21:45.367Z,12.80
2022-10-13T22:25:07.447Z,12.80
2022-10-13T22:28:36.072Z,12.80
2022-10-13T22:31:58.724Z,12.80
2022-10-13T22:35:20.276Z,12.80
2022-10-13T22:38:41.915Z,12.80
2022-10-13T22:42:03.535Z,12.80
2022-10-13T22:45:26.869Z,12.90
2022-10-13T22:48:48.758Z,12.90
2022-10-13T22:52:10.420Z,12.90
2022-10-13T22:55:31.975Z,12.90
2022-10-13T22:58:54.176Z,12.90
2022-10-13T23:02:17.054Z,12.80
2022-10-13T23:05:40.383Z,12.90
2022-10-13T23:09:03.301Z,12.90
2022-10-13T23:12:24.849Z,12.90
2022-10-13T23:15:46.390Z,12.90
2022-10-13T23:19:09.274Z,12.90
2022-10-13T23:22:30.892Z,12.90
2022-10-13T23:25:52.460Z,12.80
2022-10-13T23:29:13.995Z,12.90
2022-10-13T23:32:35.539Z,12.80
2022-10-13T23:35:59.565Z,12.80
2022-10-13T23:39:21.132Z,12.80
2022-10-13T23:42:42.680Z,12.80
2022-10-13T23:46:04.346Z,12.90
2022-10-13T23:49:25.957Z,12.90
2022-10-13T23:52:49.006Z,12.90
2022-10-13T23:56:11.240Z,12.90
2022-10-13T23:59:32.912Z,12.90
